Time;durP1;ratioP1;P1;durP2;ratioP2;P2;SDS_P1;SDS_P2;PMS_P1;PMS_P2;Temp;Humidity;BMP_temperature;BMP_pressure;BME280_temperature;BME280_humidity;BME280_pressure;Samples;Min_cycle;Max_cycle;Signal;HPM_P1;HPM_P2
2023/05/25 00:02:05;;;;;;;8.03;3.30;;;11.00;71.30;;;;;;5036436;28;20460;-77
2023/05/25 00:04:33;;;;;;;8.07;3.60;;;10.90;71.40;;;;;;5042591;28;20218;-75
2023/05/25 00:06:59;;;;;;;5.60;3.37;;;11.00;71.40;;;;;;5030575;28;20511;-78
2023/05/25 00:09:25;;;;;;;6.33;3.20;;;11.00;71.40;;;;;;5013009;28;20425;-76
2023/05/25 00:11:51;;;;;;;7.37;3.60;;;11.00;71.40;;;;;;5020747;28;20412;-78
2023/05/25 00:14:17;;;;;;;12.77;5.03;;;11.00;71.30;;;;;;5024396;28;20220;-74
2023/05/25 00:16:44;;;;;;;12.40;4.13;;;11.00;71.40;;;;;;5016997;28;21130;-77
2023/05/25 00:19:10;;;;;;;9.77;3.60;;;10.90;71.60;;;;;;5017325;28;20442;-77
2023/05/25 00:21:37;;;;;;;8.07;3.73;;;11.00;71.60;;;;;;5024902;28;20420;-78
2023/05/25 00:24:03;;;;;;;7.63;3.53;;;11.00;71.70;;;;;;5027630;28;20266;-77
2023/05/25 00:26:29;;;;;;;9.93;3.93;;;10.90;71.80;;;;;;5013306;28;20512;-76
2023/05/25 00:28:55;;;;;;;14.93;3.83;;;11.00;72.00;;;;;;5019267;28;20490;-78
2023/05/25 00:31:20;;;;;;;8.77;3.80;;;11.00;72.00;;;;;;5023100;28;20186;-78
2023/05/25 00:33:46;;;;;;;7.97;3.13;;;11.00;72.00;;;;;;5027457;28;20201;-76
2023/05/25 00:36:12;;;;;;;6.30;3.30;;;11.10;71.80;;;;;;5011117;28;20432;-76
2023/05/25 00:38:37;;;;;;;7.33;3.70;;;11.10;71.80;;;;;;5013015;28;20201;-77
2023/05/25 00:41:04;;;;;;;9.73;3.80;;;11.20;71.70;;;;;;5011767;28;20296;-77
2023/05/25 00:43:30;;;;;;;7.77;3.77;;;11.20;71.70;;;;;;5031696;28;20793;-76
2023/05/25 00:45:56;;;;;;;13.87;4.23;;;11.20;71.70;;;;;;5021325;28;20467;-78
2023/05/25 00:48:25;;;;;;;14.10;4.30;;;11.30;71.60;;;;;;5022615;28;20459;-78
2023/05/25 00:50:56;;;;;;;7.07;3.80;;;11.30;71.60;;;;;;5017190;28;20495;-77
2023/05/25 00:53:22;;;;;;;12.07;3.77;;;11.30;71.70;;;;;;5021660;28;20915;-79
2023/05/25 00:56:07;;;;;;;6.93;3.63;;;11.30;71.70;;;;;;5017119;28;20834;-77
2023/05/25 00:58:34;;;;;;;14.60;4.20;;;11.30;71.40;;;;;;5019525;28;20491;-76
2023/05/25 01:01:02;;;;;;;14.60;4.00;;;11.40;71.30;;;;;;5020689;28;20836;-78
2023/05/25 01:03:33;;;;;;;10.50;3.37;;;11.40;71.40;;;;;;5015007;28;20441;-79
2023/05/25 01:06:00;;;;;;;7.80;3.40;;;11.40;71.30;;;;;;5024566;28;20927;-78
2023/05/25 01:08:27;;;;;;;7.63;3.70;;;11.40;71.30;;;;;;5007386;28;20540;-78
2023/05/25 01:10:56;;;;;;;9.10;3.40;;;11.40;71.40;;;;;;5022392;28;20426;-76
2023/05/25 01:13:22;;;;;;;8.87;4.33;;;11.40;71.60;;;;;;5016066;28;20425;-77
2023/05/25 01:15:50;;;;;;;10.03;4.27;;;11.40;71.60;;;;;;5020885;28;20423;-76
2023/05/25 01:18:16;;;;;;;9.83;3.80;;;11.30;71.60;;;;;;5001312;28;20476;-77
2023/05/25 01:20:53;;;;;;;9.20;3.40;;;11.30;72.00;;;;;;5024873;28;20469;-75
2023/05/25 01:23:22;;;;;;;7.30;3.77;;;11.30;72.00;;;;;;5017399;28;20424;-76
2023/05/25 01:25:52;;;;;;;10.60;4.10;;;11.20;72.30;;;;;;5016004;28;20425;-78
2023/05/25 01:28:24;;;;;;;10.70;4.07;;;11.20;72.30;;;;;;5020910;28;20471;-76
2023/05/25 01:30:51;;;;;;;8.53;3.43;;;11.10;72.60;;;;;;5022942;28;20518;-77
2023/05/25 01:33:20;;;;;;;9.73;3.70;;;11.10;72.60;;;;;;5024323;28;20421;-75
2023/05/25 01:35:46;;;;;;;7.93;4.20;;;11.10;72.70;;;;;;5015745;28;20476;-76
2023/05/25 01:38:12;;;;;;;7.53;3.90;;;11.10;72.70;;;;;;5013675;28;20459;-77
2023/05/25 01:40:38;;;;;;;11.90;5.20;;;11.00;72.70;;;;;;5011881;28;20436;-76
2023/05/25 01:43:04;;;;;;;8.63;4.00;;;11.00;72.70;;;;;;5013968;28;20417;-76
2023/05/25 01:45:31;;;;;;;9.27;4.13;;;10.90;72.90;;;;;;5011259;28;20216;-76
2023/05/25 01:48:29;;;;;;;7.53;3.70;;;10.90;72.90;;;;;;5011592;28;20469;-77
2023/05/25 01:51:03;;;;;;;9.40;4.37;;;10.80;72.90;;;;;;5019475;28;20429;-76
2023/05/25 01:53:47;;;;;;;8.20;4.03;;;10.70;73.00;;;;;;5012677;28;20851;-77
2023/05/25 01:56:14;;;;;;;15.40;4.60;;;10.70;73.00;;;;;;5006511;28;20463;-76
2023/05/25 01:58:45;;;;;;;8.40;4.03;;;10.70;73.00;;;;;;5012892;28;20483;-76
2023/05/25 02:01:14;;;;;;;9.33;4.33;;;10.60;73.20;;;;;;4999301;28;20452;-76
2023/05/25 02:03:41;;;;;;;10.30;4.07;;;10.50;73.30;;;;;;5015208;28;20424;-77
2023/05/25 02:06:07;;;;;;;8.00;4.33;;;10.50;73.50;;;;;;5014653;28;20417;-75
2023/05/25 02:08:32;;;;;;;7.87;4.20;;;10.40;73.50;;;;;;5003578;28;20466;-76
2023/05/25 02:10:58;;;;;;;13.80;4.60;;;10.40;73.50;;;;;;5014965;28;20984;-77
2023/05/25 02:13:24;;;;;;;13.23;4.70;;;10.40;73.50;;;;;;5007797;28;20269;-78
2023/05/25 02:15:50;;;;;;;13.43;5.17;;;10.30;73.60;;;;;;5017097;28;20273;-77
2023/05/25 02:18:16;;;;;;;9.30;4.10;;;10.30;73.60;;;;;;5017596;28;20229;-77
2023/05/25 02:20:43;;;;;;;13.57;4.53;;;10.30;73.60;;;;;;5015807;28;20189;-75
2023/05/25 02:23:08;;;;;;;11.07;4.17;;;10.30;73.60;;;;;;5014869;28;20457;-77
2023/05/25 02:25:34;;;;;;;10.67;4.90;;;10.20;73.60;;;;;;5016577;28;20483;-77
2023/05/25 02:28:00;;;;;;;10.13;4.50;;;10.20;73.60;;;;;;5006194;28;20225;-75
2023/05/25 02:30:25;;;;;;;14.93;4.57;;;10.20;73.60;;;;;;5016373;28;20190;-78
2023/05/25 02:32:52;;;;;;;14.73;3.90;;;10.20;73.70;;;;;;5012862;28;20254;-75
2023/05/25 02:35:18;;;;;;;9.77;4.77;;;10.10;73.90;;;;;;5012007;28;21090;-77
2023/05/25 02:37:43;;;;;;;8.50;4.00;;;10.10;73.90;;;;;;5014883;28;20464;-76
2023/05/25 02:40:10;;;;;;;12.10;4.93;;;10.10;73.90;;;;;;5023960;28;20190;-78
2023/05/25 02:42:35;;;;;;;7.60;3.93;;;10.00;73.90;;;;;;5010930;28;20204;-77
2023/05/25 02:45:01;;;;;;;12.57;4.30;;;10.00;74.00;;;;;;5019027;28;20435;-77
2023/05/25 02:47:26;;;;;;;9.50;4.50;;;10.00;74.00;;;;;;5014477;28;20261;-76
2023/05/25 02:49:52;;;;;;;9.33;4.50;;;10.00;74.00;;;;;;5016492;28;20252;-75
2023/05/25 02:52:18;;;;;;;7.13;4.60;;;10.00;74.00;;;;;;5012503;28;20194;-77
2023/05/25 02:54:43;;;;;;;19.23;5.10;;;9.80;74.00;;;;;;5012603;28;20296;-77
2023/05/25 02:57:09;;;;;;;12.03;5.00;;;9.80;74.20;;;;;;5006811;28;20214;-77
2023/05/25 02:59:34;;;;;;;12.20;4.43;;;9.80;74.30;;;;;;5022365;28;20640;-77
2023/05/25 03:02:00;;;;;;;10.67;4.40;;;9.80;74.30;;;;;;5010999;28;20833;-77
2023/05/25 03:04:26;;;;;;;9.40;4.63;;;9.70;74.30;;;;;;5029550;28;20185;-76
2023/05/25 03:06:52;;;;;;;12.47;4.17;;;9.80;74.30;;;;;;5009513;28;20209;-76
2023/05/25 03:09:17;;;;;;;14.17;5.00;;;9.80;74.30;;;;;;5014751;28;20420;-77
2023/05/25 03:11:43;;;;;;;11.07;4.73;;;9.80;74.50;;;;;;5008840;28;20190;-76
2023/05/25 03:14:09;;;;;;;8.70;4.97;;;9.80;74.50;;;;;;5018001;28;20198;-76
2023/05/25 03:16:35;;;;;;;13.87;4.53;;;9.80;74.50;;;;;;5016957;28;20182;-75
2023/05/25 03:19:02;;;;;;;13.27;4.80;;;9.80;74.60;;;;;;5004777;28;20452;-77
2023/05/25 03:21:27;;;;;;;17.17;5.70;;;9.80;74.80;;;;;;5013937;28;20190;-77
2023/05/25 03:23:53;;;;;;;14.70;5.40;;;9.80;74.60;;;;;;5014165;28;20471;-78
2023/05/25 03:26:18;;;;;;;7.10;4.57;;;9.80;74.80;;;;;;5010630;28;20196;-76
2023/05/25 03:28:44;;;;;;;11.00;4.27;;;9.80;74.90;;;;;;5005720;28;20307;-77
2023/05/25 03:31:11;;;;;;;8.37;4.37;;;9.80;74.80;;;;;;5010040;28;20645;-77
2023/05/25 03:33:37;;;;;;;9.93;4.70;;;9.90;74.90;;;;;;5012395;28;20192;-76
2023/05/25 03:36:07;;;;;;;15.43;4.40;;;9.80;74.90;;;;;;5011435;28;20424;-76
2023/05/25 03:38:35;;;;;;;10.30;4.93;;;9.80;75.40;;;;;;5015032;28;20206;-76
2023/05/25 03:41:00;;;;;;;10.07;4.53;;;9.90;75.20;;;;;;5011607;28;20430;-76
2023/05/25 03:43:26;;;;;;;11.40;4.93;;;10.00;74.90;;;;;;5017729;28;20417;-78
2023/05/25 03:45:51;;;;;;;11.60;4.83;;;10.00;74.80;;;;;;5016972;28;20248;-77
2023/05/25 03:48:17;;;;;;;10.60;5.80;;;9.90;74.80;;;;;;5020207;28;20974;-77
2023/05/25 03:50:42;;;;;;;11.00;4.47;;;9.80;75.10;;;;;;5007846;28;20672;-76
2023/05/25 03:53:08;;;;;;;9.00;4.70;;;9.80;75.10;;;;;;5020822;28;20253;-75
2023/05/25 03:55:34;;;;;;;13.20;5.10;;;9.90;74.90;;;;;;5007465;28;20658;-76
2023/05/25 03:57:59;;;;;;;9.10;4.80;;;9.80;74.90;;;;;;5008393;28;20304;-76
2023/05/25 04:00:25;;;;;;;8.20;4.73;;;9.80;74.90;;;;;;5013872;28;20557;-75
2023/05/25 04:02:50;;;;;;;8.53;4.40;;;9.90;74.80;;;;;;5011675;28;20186;-76
2023/05/25 04:05:16;;;;;;;12.40;5.40;;;9.90;74.80;;;;;;5015152;28;20656;-76
2023/05/25 04:07:42;;;;;;;17.83;6.47;;;9.90;74.80;;;;;;5003868;28;20268;-76
2023/05/25 04:10:08;;;;;;;11.53;5.03;;;9.90;74.80;;;;;;5011484;28;20616;-77
2023/05/25 04:12:33;;;;;;;22.30;5.90;;;9.90;74.60;;;;;;5012889;28;20198;-76
2023/05/25 04:14:59;;;;;;;12.87;5.40;;;9.90;74.80;;;;;;5014384;28;20497;-76
2023/05/25 04:17:24;;;;;;;11.40;5.13;;;9.90;74.80;;;;;;5006705;28;20691;-76
2023/05/25 04:19:51;;;;;;;21.10;6.00;;;10.00;74.60;;;;;;5016810;28;20193;-76
2023/05/25 04:22:17;;;;;;;15.83;5.30;;;10.00;74.60;;;;;;5013680;28;20178;-75
2023/05/25 04:24:43;;;;;;;9.47;4.90;;;10.00;74.50;;;;;;5024019;28;20420;-76
2023/05/25 04:27:09;;;;;;;12.97;5.80;;;10.00;74.50;;;;;;5009924;28;20556;-76
2023/05/25 04:29:36;;;;;;;11.10;5.33;;;10.10;74.50;;;;;;5012219;28;20962;-76
2023/05/25 04:32:01;;;;;;;11.87;5.40;;;10.10;74.50;;;;;;5020332;28;20181;-75
2023/05/25 04:34:28;;;;;;;13.73;5.97;;;10.10;74.50;;;;;;5022183;28;20467;-76
2023/05/25 04:36:55;;;;;;;12.03;5.60;;;10.10;74.50;;;;;;5020218;28;20201;-76
2023/05/25 04:39:21;;;;;;;16.30;6.00;;;10.10;74.20;;;;;;5013422;28;20491;-77
2023/05/25 04:41:47;;;;;;;8.47;5.13;;;10.20;74.30;;;;;;5017227;28;20466;-77
2023/05/25 04:44:13;;;;;;;11.43;5.40;;;10.20;74.30;;;;;;5014061;28;20190;-78
2023/05/25 04:46:39;;;;;;;15.83;6.70;;;10.40;74.30;;;;;;5017656;28;20436;-77
2023/05/25 04:49:07;;;;;;;11.70;5.57;;;10.30;73.50;;;;;;5024692;28;20926;-77
2023/05/25 04:51:32;;;;;;;13.90;5.87;;;10.30;73.30;;;;;;5020440;28;20435;-77
2023/05/25 04:53:58;;;;;;;17.50;6.37;;;10.20;73.30;;;;;;5014020;28;20460;-70
2023/05/25 04:56:25;;;;;;;13.20;5.60;;;10.20;73.90;;;;;;5014663;28;20548;-73
2023/05/25 04:58:51;;;;;;;18.67;8.60;;;10.40;74.00;;;;;;5004408;28;20491;-72
2023/05/25 05:01:19;;;;;;;16.53;7.10;;;10.40;73.30;;;;;;5020698;28;20420;-72
2023/05/25 05:03:45;;;;;;;22.43;6.10;;;10.50;73.50;;;;;;5014851;28;20505;-71
2023/05/25 05:06:10;;;;;;;13.33;6.00;;;10.60;73.30;;;;;;5024720;28;21010;-72
2023/05/25 05:08:36;;;;;;;15.60;7.20;;;10.70;72.90;;;;;;5000310;28;20622;-72
2023/05/25 05:11:01;;;;;;;14.67;6.73;;;10.80;72.70;;;;;;5021157;28;20196;-74
2023/05/25 05:13:27;;;;;;;15.20;6.60;;;10.70;72.60;;;;;;5016027;28;20177;-74
2023/05/25 05:15:53;;;;;;;19.47;5.83;;;10.80;73.00;;;;;;5007310;28;20280;-74
2023/05/25 05:18:19;;;;;;;11.73;5.43;;;10.80;72.70;;;;;;5014881;28;20289;-77
2023/05/25 05:20:45;;;;;;;12.83;7.10;;;10.80;72.60;;;;;;5025091;28;20246;-76
2023/05/25 05:23:10;;;;;;;13.40;6.30;;;10.90;72.40;;;;;;5021551;28;20464;-76
2023/05/25 05:25:36;;;;;;;12.27;6.17;;;10.80;72.30;;;;;;5018818;28;20448;-76
2023/05/25 05:28:02;;;;;;;14.63;6.00;;;10.90;72.60;;;;;;5011138;28;20213;-75
2023/05/25 05:30:28;;;;;;;13.73;6.20;;;11.10;72.40;;;;;;5007372;28;20804;-77
2023/05/25 05:32:54;;;;;;;16.97;7.13;;;10.90;72.30;;;;;;5021604;28;20429;-76
2023/05/25 05:35:21;;;;;;;14.80;6.73;;;11.00;72.40;;;;;;5025685;28;20301;-77
2023/05/25 05:37:47;;;;;;;12.53;6.40;;;11.00;72.30;;;;;;5020728;28;20570;-76
2023/05/25 05:40:13;;;;;;;9.87;5.43;;;10.90;72.40;;;;;;5024222;28;20421;-77
2023/05/25 05:42:38;;;;;;;13.90;6.00;;;10.80;72.70;;;;;;5013813;28;20186;-76
2023/05/25 05:45:04;;;;;;;16.33;6.43;;;10.90;72.60;;;;;;5018395;28;20193;-76
2023/05/25 05:47:30;;;;;;;15.37;6.10;;;11.10;72.40;;;;;;5008310;28;20720;-77
2023/05/25 05:49:56;;;;;;;15.80;7.50;;;10.90;72.30;;;;;;5019924;28;20475;-75
2023/05/25 05:52:21;;;;;;;19.03;6.90;;;10.90;72.70;;;;;;5013504;28;20212;-77
2023/05/25 05:54:47;;;;;;;15.50;7.47;;;10.90;72.90;;;;;;5016370;28;20213;-75
2023/05/25 05:57:12;;;;;;;15.83;6.70;;;11.00;72.90;;;;;;5010021;28;20210;-75
2023/05/25 05:59:38;;;;;;;21.53;6.90;;;11.20;72.70;;;;;;5013645;28;20182;-77
2023/05/25 06:02:06;;;;;;;14.83;6.90;;;11.40;72.10;;;;;;5015654;28;20182;-76
2023/05/25 06:04:31;;;;;;;15.93;6.50;;;11.30;72.30;;;;;;5010767;28;20233;-75
2023/05/25 06:06:57;;;;;;;19.47;7.33;;;11.40;71.80;;;;;;5017063;28;20716;-77
2023/05/25 06:09:23;;;;;;;13.33;7.00;;;11.50;72.00;;;;;;5020273;28;20178;-75
2023/05/25 06:11:49;;;;;;;16.10;7.50;;;11.70;71.70;;;;;;5043422;28;20444;-75
2023/05/25 06:14:14;;;;;;;15.37;7.33;;;11.90;71.30;;;;;;5023166;28;20217;-76
2023/05/25 06:16:41;;;;;;;18.20;7.80;;;11.70;71.40;;;;;;5015333;28;20552;-75
2023/05/25 06:19:07;;;;;;;13.10;6.67;;;11.30;72.10;;;;;;5007830;28;20211;-77
2023/05/25 06:21:32;;;;;;;16.57;7.27;;;11.50;72.30;;;;;;5022537;28;20437;-76
2023/05/25 06:23:58;;;;;;;18.83;8.27;;;11.50;72.10;;;;;;5019017;28;20201;-76
2023/05/25 06:26:24;;;;;;;13.07;7.03;;;11.60;72.40;;;;;;5017893;28;20198;-77
2023/05/25 06:28:50;;;;;;;17.67;7.00;;;11.70;72.00;;;;;;5011393;28;20511;-76
2023/05/25 06:31:16;;;;;;;17.73;8.07;;;11.80;71.70;;;;;;5015118;28;20186;-74
2023/05/25 06:33:41;;;;;;;13.23;6.97;;;11.70;72.00;;;;;;5020289;28;20434;-76
2023/05/25 06:36:07;;;;;;;20.37;7.80;;;11.60;72.30;;;;;;5015432;28;20206;-76
2023/05/25 06:38:33;;;;;;;18.10;7.63;;;11.60;72.30;;;;;;5012276;28;20239;-76
2023/05/25 06:41:02;;;;;;;18.50;6.40;;;11.60;72.60;;;;;;5015985;28;20520;-76
2023/05/25 06:43:28;;;;;;;20.50;6.73;;;11.90;72.40;;;;;;5018353;28;20192;-77
2023/05/25 06:45:54;;;;;;;13.33;6.63;;;12.10;72.00;;;;;;5024848;28;20450;-75
2023/05/25 06:48:19;;;;;;;22.57;7.80;;;12.00;72.00;;;;;;5014486;28;20562;-76
2023/05/25 06:50:45;;;;;;;16.93;7.07;;;12.20;71.70;;;;;;5018796;28;20214;-76
2023/05/25 06:53:11;;;;;;;12.30;7.00;;;12.30;71.60;;;;;;5016076;28;20499;-76
2023/05/25 06:55:37;;;;;;;14.80;7.90;;;12.50;71.10;;;;;;5018817;28;20225;-75
2023/05/25 06:58:02;;;;;;;14.33;8.53;;;12.30;71.30;;;;;;5010007;28;20460;-76
2023/05/25 07:00:28;;;;;;;19.50;8.40;;;12.30;71.70;;;;;;5015011;28;20611;-75
2023/05/25 07:02:54;;;;;;;18.07;7.33;;;12.50;71.40;;;;;;5019114;28;20607;-76
2023/05/25 07:05:19;;;;;;;23.73;7.87;;;12.60;71.30;;;;;;5012447;28;20640;-76
2023/05/25 07:07:45;;;;;;;16.27;8.30;;;12.50;71.30;;;;;;5008965;28;20213;-75
2023/05/25 07:10:11;;;;;;;20.57;7.20;;;12.70;71.30;;;;;;5007613;28;20194;-77
2023/05/25 07:12:36;;;;;;;18.73;8.23;;;12.70;71.60;;;;;;5020848;28;20185;-77
2023/05/25 07:15:02;;;;;;;17.03;8.17;;;12.60;71.60;;;;;;5010820;28;20643;-77
2023/05/25 07:17:27;;;;;;;17.07;7.80;;;12.60;71.60;;;;;;5014134;28;20285;-76
2023/05/25 07:19:53;;;;;;;18.60;8.07;;;12.60;71.80;;;;;;5010245;28;20257;-75
2023/05/25 07:22:19;;;;;;;19.30;7.97;;;12.70;71.70;;;;;;5018724;28;20181;-75
2023/05/25 07:24:45;;;;;;;14.67;8.17;;;12.90;71.70;;;;;;5019658;28;20254;-76
2023/05/25 07:27:12;;;;;;;20.07;8.40;;;13.00;71.30;;;;;;5015032;28;20232;-77
2023/05/25 07:29:38;;;;;;;20.20;8.33;;;13.10;71.00;;;;;;5015388;28;20530;-76
2023/05/25 07:32:05;;;;;;;17.93;8.33;;;12.90;71.30;;;;;;5012516;28;20432;-78
2023/05/25 07:34:30;;;;;;;19.20;7.70;;;13.00;71.40;;;;;;5011676;28;20889;-77
2023/05/25 07:36:56;;;;;;;23.27;9.33;;;13.30;71.30;;;;;;5019153;28;20506;-75
2023/05/25 07:39:21;;;;;;;17.67;8.10;;;13.30;70.70;;;;;;5009740;28;20635;-77
2023/05/25 07:41:47;;;;;;;24.20;8.03;;;13.20;71.30;;;;;;5019514;28;20204;-77
2023/05/25 07:44:13;;;;;;;19.60;9.97;;;13.30;71.10;;;;;;5015956;28;20196;-77
2023/05/25 07:46:38;;;;;;;19.70;8.50;;;13.30;71.30;;;;;;5027396;28;20189;-76
2023/05/25 07:49:05;;;;;;;18.47;8.00;;;13.20;71.30;;;;;;5014937;28;20213;-76
2023/05/25 07:51:31;;;;;;;17.50;7.47;;;13.40;71.30;;;;;;5021226;28;20194;-75
2023/05/25 07:53:57;;;;;;;16.10;8.97;;;13.50;71.00;;;;;;5013599;28;20476;-77
2023/05/25 07:56:23;;;;;;;28.00;8.20;;;13.60;70.50;;;;;;5014162;28;20412;-76
2023/05/25 07:58:48;;;;;;;17.83;7.73;;;13.60;70.80;;;;;;5003213;28;20235;-76
2023/05/25 08:01:15;;;;;;;15.03;8.30;;;13.50;70.80;;;;;;5018680;28;20183;-74
2023/05/25 08:03:40;;;;;;;17.90;8.70;;;13.80;71.00;;;;;;5016899;28;20190;-76
2023/05/25 08:06:06;;;;;;;22.50;8.93;;;13.90;70.40;;;;;;5019867;28;20435;-77
2023/05/25 08:08:32;;;;;;;19.43;8.70;;;13.90;70.20;;;;;;5019507;28;20217;-78
2023/05/25 08:10:57;;;;;;;17.63;8.53;;;14.00;70.40;;;;;;5023546;28;20206;-77
2023/05/25 08:13:23;;;;;;;18.23;8.40;;;14.20;70.20;;;;;;5035924;28;20280;-78
2023/05/25 08:15:48;;;;;;;12.77;7.90;;;14.50;69.40;;;;;;5025873;28;20305;-76
2023/05/25 08:18:14;;;;;;;17.37;8.60;;;14.70;69.20;;;;;;5019883;28;20224;-77
2023/05/25 08:20:40;;;;;;;13.50;7.90;;;14.50;69.40;;;;;;5024521;28;20195;-77
2023/05/25 08:23:07;;;;;;;19.23;9.10;;;14.60;69.40;;;;;;5020336;28;20194;-77
2023/05/25 08:25:32;;;;;;;17.50;8.50;;;14.90;69.10;;;;;;5023311;28;20533;-76
2023/05/25 08:27:58;;;;;;;17.27;8.83;;;15.00;68.80;;;;;;5013107;28;20900;-76
2023/05/25 08:30:23;;;;;;;15.90;8.37;;;14.80;69.10;;;;;;5025705;28;20932;-77
2023/05/25 08:32:49;;;;;;;17.53;7.67;;;14.60;69.80;;;;;;5025055;28;20546;-77
2023/05/25 08:35:16;;;;;;;22.23;8.90;;;14.60;69.80;;;;;;5022927;28;20244;-78
2023/05/25 08:37:42;;;;;;;24.63;8.90;;;14.50;69.90;;;;;;5019323;28;20674;-77
2023/05/25 08:40:14;;;;;;;22.77;8.70;;;14.60;69.80;;;;;;5009352;28;20905;-75
2023/05/25 08:42:44;;;;;;;14.57;8.10;;;14.70;69.80;;;;;;5022033;28;20770;-76
2023/05/25 08:45:11;;;;;;;20.57;9.00;;;14.80;69.90;;;;;;5018688;28;20428;-77
2023/05/25 08:47:42;;;;;;;19.43;8.97;;;14.90;69.40;;;;;;5019876;28;20452;-77
2023/05/25 08:50:08;;;;;;;18.07;8.43;;;15.00;69.20;;;;;;5014378;28;20421;-76
2023/05/25 08:52:36;;;;;;;21.63;9.70;;;15.20;69.40;;;;;;5022284;28;20507;-78
2023/05/25 08:55:05;;;;;;;16.20;9.30;;;15.50;68.80;;;;;;5020053;28;20486;-77
2023/05/25 08:57:52;;;;;;;17.10;8.70;;;15.60;68.50;;;;;;5014094;28;20488;-78
2023/05/25 09:00:23;;;;;;;17.93;8.70;;;15.70;68.00;;;;;;5019052;28;20426;-75
2023/05/25 09:03:14;;;;;;;15.70;8.37;;;15.80;68.30;;;;;;5021839;28;20415;-77
2023/05/25 09:05:41;;;;;;;17.07;8.50;;;15.70;68.30;;;;;;5019496;28;20496;-77
2023/05/25 09:08:07;;;;;;;20.70;8.20;;;15.90;68.20;;;;;;5026932;28;20460;-78
2023/05/25 09:10:37;;;;;;;15.80;9.40;;;16.20;67.60;;;;;;5018102;28;20434;-75
2023/05/25 09:13:03;;;;;;;17.40;9.37;;;15.80;68.00;;;;;;5020229;28;20472;-75
2023/05/25 09:15:33;;;;;;;20.47;9.43;;;15.90;68.30;;;;;;5020694;28;20532;-76
2023/05/25 09:17:58;;;;;;;17.73;9.60;;;15.90;67.90;;;;;;5008918;28;20460;-77
2023/05/25 09:20:30;;;;;;;15.07;8.80;;;16.00;68.00;;;;;;5027432;28;20435;-76
2023/05/25 09:22:56;;;;;;;19.37;9.20;;;16.20;68.00;;;;;;5015473;28;20225;-74
2023/05/25 09:25:25;;;;;;;19.47;8.50;;;16.40;67.50;;;;;;5020205;28;20434;-75
2023/05/25 09:27:50;;;;;;;16.23;8.40;;;16.40;67.50;;;;;;5015857;28;20551;-74
2023/05/25 09:30:16;;;;;;;27.03;8.60;;;16.80;66.90;;;;;;5019852;28;20877;-74
2023/05/25 09:32:42;;;;;;;19.07;9.50;;;16.80;67.30;;;;;;5021434;28;20194;-73
2023/05/25 09:35:12;;;;;;;18.90;8.40;;;17.00;66.40;;;;;;5022223;28;20213;-77
2023/05/25 09:37:42;;;;;;;24.63;9.70;;;16.90;66.30;;;;;;5014284;28;20213;-76
2023/05/25 09:40:12;;;;;;;16.90;9.40;;;17.00;66.10;;;;;;5013179;28;20788;-76
2023/05/25 09:42:38;;;;;;;14.37;8.20;;;17.00;65.70;;;;;;5012872;28;20421;-76
2023/05/25 09:45:04;;;;;;;26.63;10.07;;;16.90;66.10;;;;;;5021908;28;21084;-76
2023/05/25 09:47:30;;;;;;;18.47;9.07;;;16.80;66.60;;;;;;5014044;28;20463;-77
2023/05/25 09:49:56;;;;;;;14.83;7.90;;;17.00;66.40;;;;;;5024690;28;20910;-76
2023/05/25 09:52:22;;;;;;;16.77;9.00;;;17.30;65.70;;;;;;5017313;28;20529;-76
2023/05/25 09:54:49;;;;;;;19.07;9.87;;;17.70;65.30;;;;;;5017052;28;20221;-75
2023/05/25 09:57:15;;;;;;;24.43;8.20;;;17.20;65.80;;;;;;5017700;28;20465;-77
2023/05/25 09:59:42;;;;;;;15.63;9.00;;;17.30;65.80;;;;;;5018463;28;20425;-77
2023/05/25 10:02:08;;;;;;;18.27;8.30;;;17.50;65.30;;;;;;5029234;28;20423;-77
2023/05/25 10:04:33;;;;;;;14.73;8.03;;;17.40;65.70;;;;;;5034805;28;20991;-76
2023/05/25 10:07:00;;;;;;;16.93;7.63;;;17.90;64.80;;;;;;5024211;28;20294;-75
2023/05/25 10:09:29;;;;;;;23.40;9.10;;;18.10;64.40;;;;;;5015078;28;20772;-77
2023/05/25 10:11:56;;;;;;;16.10;8.13;;;17.90;64.10;;;;;;5011609;28;20510;-77
2023/05/25 10:14:25;;;;;;;17.23;8.50;;;18.00;64.10;;;;;;5019411;28;20478;-76
2023/05/25 10:16:54;;;;;;;18.60;8.27;;;17.80;64.70;;;;;;5012889;28;20419;-74
2023/05/25 10:19:23;;;;;;;16.70;8.20;;;18.00;64.80;;;;;;5010637;28;20472;-75
2023/05/25 10:21:57;;;;;;;22.10;8.97;;;18.50;63.70;;;;;;5012433;28;20426;-77
2023/05/25 10:24:51;;;;;;;17.00;7.70;;;18.80;62.50;;;;;;5018956;28;20451;-76
2023/05/25 10:27:18;;;;;;;14.93;7.30;;;19.10;62.20;;;;;;5003168;28;20464;-73
2023/05/25 10:29:50;;;;;;;13.70;7.30;;;19.70;60.70;;;;;;5013708;28;20512;-75
2023/05/25 10:32:17;;;;;;;20.63;9.60;;;20.30;58.90;;;;;;5006282;28;20446;-76
2023/05/25 10:34:44;;;;;;;10.90;6.53;;;19.70;59.30;;;;;;5018973;28;20487;-76
2023/05/25 10:37:11;;;;;;;16.87;8.80;;;19.90;60.30;;;;;;5001752;28;20466;-78
2023/05/25 10:39:38;;;;;;;11.87;7.00;;;19.90;59.50;;;;;;5028126;28;20448;-77
2023/05/25 10:42:05;;;;;;;14.57;8.30;;;19.70;60.60;;;;;;5016085;28;20425;-76
2023/05/25 10:44:31;;;;;;;20.50;8.00;;;19.30;61.50;;;;;;5023690;28;20425;-76
2023/05/25 10:46:58;;;;;;;16.87;8.07;;;19.60;61.00;;;;;;5013463;28;20451;-76
2023/05/25 10:49:32;;;;;;;18.77;7.67;;;19.90;60.60;;;;;;5018519;28;20436;-78
2023/05/25 10:51:59;;;;;;;15.20;7.83;;;20.10;59.70;;;;;;5017941;28;20421;-76
2023/05/25 10:54:35;;;;;;;13.03;7.90;;;19.70;60.10;;;;;;5016482;28;20895;-77
2023/05/25 10:57:09;;;;;;;18.13;8.50;;;19.70;61.00;;;;;;5008935;28;20467;-76
2023/05/25 10:59:35;;;;;;;15.60;7.17;;;19.90;60.60;;;;;;5012321;28;20425;-78
2023/05/25 11:02:05;;;;;;;16.20;7.97;;;20.00;60.00;;;;;;5018694;28;20981;-78
2023/05/25 11:04:35;;;;;;;14.03;7.77;;;19.70;60.70;;;;;;5020046;28;20719;-76
2023/05/25 11:07:01;;;;;;;10.77;7.10;;;20.00;60.40;;;;;;5010877;28;20451;-75
2023/05/25 11:09:31;;;;;;;15.73;8.43;;;20.50;59.30;;;;;;5011117;28;20422;-77
2023/05/25 11:11:58;;;;;;;16.90;7.40;;;19.80;59.90;;;;;;5012849;28;20187;-79
2023/05/25 11:14:30;;;;;;;9.50;6.63;;;19.50;61.90;;;;;;5008472;28;20476;-77
2023/05/25 11:17:12;;;;;;;13.63;7.37;;;20.00;60.60;;;;;;5002393;28;20450;-75
2023/05/25 11:19:42;;;;;;;14.50;7.50;;;19.90;60.70;;;;;;5013453;28;20446;-77
2023/05/25 11:22:14;;;;;;;15.53;7.90;;;20.30;60.40;;;;;;5029287;28;20970;-78
2023/05/25 11:24:40;;;;;;;12.30;8.10;;;20.30;59.30;;;;;;5014054;28;20987;-79
2023/05/25 11:27:07;;;;;;;13.27;7.30;;;20.30;59.90;;;;;;5012916;28;21137;-78
2023/05/25 11:29:36;;;;;;;12.33;7.53;;;20.30;59.50;;;;;;5019069;28;20514;-78
2023/05/25 11:32:02;;;;;;;12.83;7.90;;;20.30;59.60;;;;;;5008070;28;20423;-78
2023/05/25 11:34:30;;;;;;;13.50;7.63;;;20.70;58.90;;;;;;5019537;28;20474;-77
2023/05/25 11:37:00;;;;;;;16.07;7.57;;;21.10;57.80;;;;;;5023757;28;20430;-78
2023/05/25 11:39:26;;;;;;;13.23;8.00;;;20.70;58.10;;;;;;5018272;28;20431;-76
2023/05/25 11:42:01;;;;;;;13.77;7.77;;;20.50;58.80;;;;;;5017163;28;20429;-77
2023/05/25 11:44:28;;;;;;;11.07;7.43;;;19.80;60.70;;;;;;5012652;28;20473;-77
2023/05/25 11:46:55;;;;;;;14.57;7.63;;;20.00;60.40;;;;;;5010801;28;20464;-76
2023/05/25 11:49:22;;;;;;;15.67;8.43;;;20.00;60.00;;;;;;5008579;28;20437;-76
2023/05/25 11:51:47;;;;;;;15.57;8.40;;;19.60;60.90;;;;;;5010329;28;20424;-79
2023/05/25 11:54:27;;;;;;;18.23;7.47;;;19.50;61.30;;;;;;5013387;28;20475;-76
2023/05/25 11:56:57;;;;;;;13.83;7.90;;;19.70;61.20;;;;;;5022891;28;20236;-75
2023/05/25 11:59:24;;;;;;;14.00;7.60;;;19.70;60.90;;;;;;5013371;28;20424;-78
2023/05/25 12:01:59;;;;;;;11.13;8.00;;;19.80;60.70;;;;;;5010836;28;20421;-78
2023/05/25 12:04:25;;;;;;;10.03;6.50;;;20.20;60.10;;;;;;5020694;28;20433;-77
2023/05/25 12:06:51;;;;;;;15.10;7.60;;;20.40;59.90;;;;;;5017428;28;20429;-76
2023/05/25 12:09:20;;;;;;;13.60;7.80;;;21.00;58.40;;;;;;5015836;28;20192;-76
2023/05/25 12:11:46;;;;;;;11.30;7.40;;;21.30;57.40;;;;;;5017072;28;20428;-77
2023/05/25 12:14:13;;;;;;;10.10;7.00;;;21.20;57.40;;;;;;5020138;28;20467;-76
2023/05/25 12:16:39;;;;;;;13.20;7.27;;;21.30;57.30;;;;;;5027512;28;20519;-75
2023/05/25 12:19:06;;;;;;;18.00;7.90;;;21.30;56.60;;;;;;5021478;28;20447;-73
2023/05/25 12:21:33;;;;;;;21.73;8.33;;;21.30;56.90;;;;;;5030166;28;20424;-73
2023/05/25 12:23:59;;;;;;;13.23;8.23;;;21.20;57.00;;;;;;5024660;28;20418;-74
2023/05/25 12:26:27;;;;;;;11.70;7.03;;;21.10;57.40;;;;;;5031069;28;20499;-73
2023/05/25 12:29:03;;;;;;;16.97;7.20;;;21.10;57.70;;;;;;5028908;28;20512;-75
2023/05/25 12:31:31;;;;;;;16.67;8.20;;;21.50;56.50;;;;;;5036396;28;20467;-74
2023/05/25 12:34:17;;;;;;;15.90;7.87;;;21.40;56.80;;;;;;5032990;28;20447;-76
2023/05/25 12:36:51;;;;;;;12.47;7.50;;;21.00;57.80;;;;;;5026196;28;20477;-73
2023/05/25 12:39:30;;;;;;;15.57;7.07;;;20.80;57.80;;;;;;5030806;28;20434;-77
2023/05/25 12:42:01;;;;;;;13.20;7.73;;;21.10;57.80;;;;;;5028155;28;20431;-79